createdAt,value
2018-12-18T00:00:02.512Z,5.28
2018-12-18T00:05:14.538Z,5.27
2018-12-18T00:10:18.816Z,5.34
2018-12-18T00:15:23.051Z,5.30
2018-12-18T00:20:27.239Z,5.29
2018-12-18T00:25:31.696Z,5.25
2018-12-18T00:30:36.980Z,5.30
2018-12-18T00:35:41.248Z,5.33
2018-12-18T00:40:45.597Z,5.37
2018-12-18T00:45:50.813Z,5.41
2018-12-18T00:50:55.090Z,5.43
2018-12-18T00:55:59.188Z,5.39
2018-12-18T01:01:03.597Z,5.45
2018-12-18T01:06:08.868Z,5.52
2018-12-18T01:11:13.017Z,5.49
2018-12-18T01:16:17.239Z,5.54
2018-12-18T01:21:21.427Z,5.46
2018-12-18T01:26:26.026Z,5.45
2018-12-18T01:31:30.358Z,5.51
2018-12-18T01:36:34.722Z,5.55
2018-12-18T01:41:44.122Z,5.59
2018-12-18T01:46:48.550Z,5.58
2018-12-18T01:51:53.026Z,5.59
2018-12-18T01:56:57.335Z,5.60
2018-12-18T02:02:01.901Z,5.59
2018-12-18T02:07:06.097Z,5.50
2018-12-18T02:12:13.301Z,5.50
2018-12-18T02:17:20.141Z,5.59
2018-12-18T02:22:24.316Z,5.59
2018-12-18T02:27:28.515Z,5.58
2018-12-18T02:32:32.881Z,5.61
2018-12-18T02:37:37.203Z,5.64
2018-12-18T02:42:41.350Z,5.61
2018-12-18T02:47:46.567Z,5.68
2018-12-18T02:52:51.623Z,5.65
2018-12-18T02:57:55.993Z,5.67
2018-12-18T03:03:00.205Z,5.66
2018-12-18T03:08:04.402Z,5.61
2018-12-18T03:13:08.665Z,5.54
2018-12-18T03:18:13.035Z,5.53
2018-12-18T03:23:17.269Z,5.50
2018-12-18T03:28:21.431Z,5.53
2018-12-18T03:33:25.747Z,5.52
2018-12-18T03:38:30.414Z,5.57
2018-12-18T03:43:34.684Z,5.53
2018-12-18T03:48:38.978Z,5.53
2018-12-18T03:53:43.069Z,5.54
2018-12-18T03:58:47.227Z,5.52
2018-12-18T04:03:51.679Z,5.54
2018-12-18T04:08:56.727Z,5.52
2018-12-18T04:14:00.933Z,5.48
2018-12-18T04:19:06.722Z,5.61
2018-12-18T04:24:11.098Z,5.63
2018-12-18T04:29:15.425Z,5.63
2018-12-18T04:34:21.111Z,5.63
2018-12-18T04:39:25.625Z,5.59
2018-12-18T04:44:29.959Z,5.55
2018-12-18T04:49:34.201Z,5.50
2018-12-18T04:54:38.717Z,5.43
2018-12-18T04:59:43.092Z,5.42
2018-12-18T05:04:50.568Z,5.39
2018-12-18T05:09:54.101Z,5.39
2018-12-18T05:14:58.282Z,5.34
2018-12-18T05:20:03.966Z,5.31
2018-12-18T05:25:08.325Z,5.29
2018-12-18T05:30:12.974Z,5.30
2018-12-18T05:35:17.448Z,5.25
2018-12-18T05:40:21.923Z,5.23
2018-12-18T05:45:26.496Z,5.23
2018-12-18T05:50:31.206Z,5.23
2018-12-18T05:55:35.860Z,5.24
2018-12-18T06:00:41.660Z,5.23
2018-12-18T06:05:46.144Z,5.20
2018-12-18T06:10:50.630Z,5.18
2018-12-18T06:15:55.010Z,5.13
2018-12-18T06:21:02.848Z,5.17
2018-12-18T06:26:07.026Z,5.13
2018-12-18T06:31:11.568Z,5.14
2018-12-18T06:36:16.216Z,5.15
2018-12-18T06:41:20.661Z,5.15
2018-12-18T06:46:24.888Z,5.15
2018-12-18T06:51:32.978Z,5.16
2018-12-18T06:56:38.014Z,5.09
2018-12-18T07:01:42.444Z,5.13
2018-12-18T07:06:46.886Z,5.16
2018-12-18T07:11:51.210Z,5.14
2018-12-18T07:16:55.376Z,5.12
2018-12-18T07:21:59.806Z,5.05
2018-12-18T07:27:04.576Z,5.07
2018-12-18T07:32:09.094Z,5.07
2018-12-18T07:37:13.919Z,5.07
2018-12-18T07:42:18.356Z,5.06
2018-12-18T07:47:23.472Z,5.14
2018-12-18T07:52:28.308Z,5.11
2018-12-18T07:57:32.790Z,5.11
2018-12-18T08:02:37.184Z,5.21
2018-12-18T08:07:42.059Z,5.24
2018-12-18T08:12:47.050Z,5.30
2018-12-18T08:17:51.220Z,5.36
2018-12-18T08:22:55.596Z,5.32
2018-12-18T08:27:59.825Z,5.37
2018-12-18T08:33:04.170Z,5.39
2018-12-18T08:38:08.674Z,5.37
2018-12-18T08:43:18.273Z,5.38
2018-12-18T08:48:22.812Z,5.40
2018-12-18T08:53:27.142Z,5.35
2018-12-18T08:58:31.616Z,5.40
2018-12-18T09:03:36.181Z,5.50
2018-12-18T09:08:40.787Z,5.55
2018-12-18T09:13:46.440Z,5.59
2018-12-18T09:18:50.972Z,5.63
2018-12-18T09:23:59.418Z,5.65
2018-12-18T09:29:04.951Z,5.72
2018-12-18T09:34:09.538Z,5.74
2018-12-18T09:39:23.109Z,5.78
2018-12-18T09:44:29.781Z,5.77
2018-12-18T09:49:34.687Z,5.81
2018-12-18T09:54:39.169Z,5.84
2018-12-18T10:09:09.777Z,6.03
2018-12-18T10:14:14.627Z,6.09
2018-12-18T10:19:19.241Z,6.12
2018-12-18T10:24:24.012Z,6.27
2018-12-18T10:29:28.553Z,6.46
2018-12-18T10:34:32.773Z,6.56
2018-12-18T10:39:37.101Z,6.71
2018-12-18T10:44:41.639Z,6.87
2018-12-18T10:49:45.938Z,7.07
2018-12-18T10:54:50.622Z,7.26
2018-12-18T10:59:55.383Z,7.35
2018-12-18T11:05:02.265Z,7.45
2018-12-18T11:10:11.800Z,7.51
2018-12-18T11:15:16.325Z,7.44
2018-12-18T11:20:20.687Z,7.32
2018-12-18T11:25:25.216Z,7.29
2018-12-18T11:30:30.047Z,7.32
2018-12-18T11:35:34.661Z,7.33
2018-12-18T11:40:39.049Z,7.63
2018-12-18T11:45:43.337Z,7.85
2018-12-18T11:50:48.249Z,8.20
2018-12-18T11:55:52.820Z,8.36
2018-12-18T12:00:57.122Z,8.41
2018-12-18T12:06:01.796Z,8.43
2018-12-18T12:11:06.313Z,8.41
2018-12-18T12:16:11.244Z,8.24
2018-12-18T12:21:15.625Z,8.04
2018-12-18T12:26:34.707Z,7.93
2018-12-18T12:31:43.999Z,7.93
2018-12-18T12:36:48.251Z,8.07
2018-12-18T12:41:52.857Z,8.51
2018-12-18T12:46:57.203Z,8.54
2018-12-18T12:52:01.735Z,8.50
2018-12-18T12:57:06.260Z,8.41
2018-12-18T13:02:10.624Z,8.49
2018-12-18T13:07:14.829Z,8.47
2018-12-18T13:12:19.170Z,8.29
2018-12-18T13:17:23.600Z,8.07
2018-12-18T13:22:27.967Z,7.89
2018-12-18T13:27:32.137Z,7.90
2018-12-18T13:32:36.501Z,7.83
2018-12-18T13:37:40.649Z,7.77
2018-12-18T13:42:44.963Z,7.75
2018-12-18T13:47:49.341Z,7.75
2018-12-18T13:52:53.865Z,7.76
2018-12-18T13:57:59.319Z,7.78
2018-12-18T14:03:04.263Z,7.76
2018-12-18T14:08:08.949Z,7.84
2018-12-18T14:13:13.239Z,8.02
2018-12-18T14:18:17.651Z,7.88
2018-12-18T14:23:22.093Z,7.72
2018-12-18T14:28:26.662Z,7.57
2018-12-18T14:33:31.213Z,7.41
2018-12-18T14:38:35.842Z,7.28
2018-12-18T14:43:45.327Z,7.17
2018-12-18T14:48:50.330Z,7.09
2018-12-18T14:53:55.330Z,7.12
2018-12-18T14:58:59.713Z,7.05
2018-12-18T15:04:04.296Z,6.94
2018-12-18T15:09:08.844Z,6.85
2018-12-18T15:14:13.224Z,6.80
2018-12-18T15:19:17.688Z,6.75
2018-12-18T15:24:21.860Z,6.69
2018-12-18T15:29:26.492Z,6.60
2018-12-18T15:34:31.048Z,6.60
2018-12-18T15:39:35.770Z,6.55
2018-12-18T15:44:40.154Z,6.56
2018-12-18T15:49:44.625Z,6.50
2018-12-18T15:54:50.037Z,6.45
2018-12-18T15:59:54.462Z,6.44
2018-12-18T16:04:58.997Z,6.46
2018-12-18T16:10:04.017Z,6.32
2018-12-18T16:15:09.380Z,6.31
2018-12-18T16:20:14.156Z,6.32
2018-12-18T16:25:20.381Z,6.41
2018-12-18T16:30:25.245Z,6.39
2018-12-18T16:35:30.101Z,6.37
2018-12-18T16:40:34.845Z,6.33
2018-12-18T16:45:39.417Z,6.24
2018-12-18T16:50:44.479Z,6.16
2018-12-18T16:55:48.795Z,6.17
2018-12-18T17:00:54.551Z,6.02
2018-12-18T17:05:59.683Z,5.95
2018-12-18T17:11:04.467Z,5.91
2018-12-18T17:16:09.114Z,5.85
2018-12-18T17:21:14.753Z,5.94
2018-12-18T17:26:19.283Z,5.85
2018-12-18T17:31:23.658Z,5.82
2018-12-18T17:36:28.155Z,5.74
2018-12-18T17:41:32.563Z,5.65
2018-12-18T17:46:37.433Z,5.73
2018-12-18T17:51:47.147Z,5.69
2018-12-18T17:56:51.742Z,5.66
2018-12-18T18:01:56.151Z,5.59
2018-12-18T18:07:01.399Z,5.58
2018-12-18T18:12:10.794Z,5.54
2018-12-18T18:17:15.331Z,5.51
2018-12-18T18:22:29.075Z,5.47
2018-12-18T18:27:33.988Z,5.39
2018-12-18T18:32:38.689Z,5.32
2018-12-18T18:37:49.620Z,5.22
2018-12-18T18:42:50.568Z,5.30
2018-12-18T18:47:55.221Z,5.22
2018-12-18T18:53:00.391Z,5.14
2018-12-18T18:58:04.989Z,5.12
2018-12-18T19:03:09.957Z,5.11
2018-12-18T19:08:14.259Z,5.09
2018-12-18T19:13:24.043Z,5.10
2018-12-18T19:18:28.313Z,5.08
2018-12-18T19:23:39.033Z,5.06
2018-12-18T19:28:50.243Z,5.00
2018-12-18T19:33:52.271Z,4.96
2018-12-18T19:38:59.958Z,4.96
2018-12-18T19:44:10.297Z,4.94
2018-12-18T19:49:14.861Z,4.91
2018-12-18T19:54:19.997Z,4.83
2018-12-18T19:59:27.231Z,4.79
2018-12-18T20:04:32.070Z,4.77
2018-12-18T20:09:36.722Z,4.74
2018-12-18T20:14:41.442Z,4.70
2018-12-18T20:19:46.352Z,4.67
2018-12-18T20:24:51.050Z,4.69
2018-12-18T20:29:56.822Z,4.68
2018-12-18T20:35:03.016Z,4.62
2018-12-18T20:40:09.702Z,4.63
2018-12-18T20:45:14.450Z,4.59
2018-12-18T20:50:19.296Z,4.58
2018-12-18T20:55:25.054Z,4.52
2018-12-18T21:00:29.649Z,4.46
2018-12-18T21:05:34.233Z,4.41
2018-12-18T21:10:39.426Z,4.36
2018-12-18T21:15:43.905Z,4.28
2018-12-18T21:20:48.639Z,4.25
2018-12-18T21:25:56.113Z,4.19
2018-12-18T21:31:01.095Z,4.20
2018-12-18T21:36:05.678Z,4.11
2018-12-18T21:41:10.095Z,4.04
2018-12-18T21:46:14.585Z,3.97
2018-12-18T21:51:19.996Z,3.92
2018-12-18T21:56:24.509Z,3.89
2018-12-18T22:01:29.309Z,3.87
2018-12-18T22:06:34.269Z,3.83
2018-12-18T22:11:38.542Z,3.84
2018-12-18T22:16:43.462Z,3.85
2018-12-18T22:21:48.038Z,3.80
2018-12-18T22:26:52.286Z,3.75
2018-12-18T22:31:56.600Z,3.75
2018-12-18T22:37:01.472Z,3.73
2018-12-18T22:42:05.844Z,3.69
2018-12-18T22:47:11.368Z,3.64
2018-12-18T22:52:17.518Z,3.61
2018-12-18T22:57:22.081Z,3.55
2018-12-18T23:02:26.533Z,3.58
2018-12-18T23:07:31.050Z,3.54
2018-12-18T23:12:37.646Z,3.55
2018-12-18T23:17:43.383Z,3.58
2018-12-18T23:22:52.739Z,3.55
2018-12-18T23:27:56.978Z,3.50
2018-12-18T23:33:02.055Z,3.43
2018-12-18T23:38:06.610Z,3.39
2018-12-18T23:43:11.437Z,3.39
2018-12-18T23:48:16.137Z,3.41
2018-12-18T23:53:29.627Z,3.41
2018-12-18T23:58:33.907Z,3.41
